Time;durP1;ratioP1;P1;durP2;ratioP2;P2;SDS_P1;SDS_P2;PMS_P1;PMS_P2;Temp;Humidity;BMP_temperature;BMP_pressure;BME280_temperature;BME280_humidity;BME280_pressure;Samples;Min_cycle;Max_cycle;Signal;HPM_P1;HPM_P2
2022/09/17 00:00:00;;;;;;;6.97;5.33;;;13.10;99.90;;;;;;5081120;28;20290;-68
2022/09/17 00:02:29;;;;;;;8.70;6.30;;;13.00;99.90;;;;;;5093796;28;20212;-70
2022/09/17 00:04:56;;;;;;;7.03;5.67;;;13.00;99.90;;;;;;5070877;28;20271;-69
2022/09/17 00:07:23;;;;;;;8.87;5.80;;;12.90;99.90;;;;;;5074151;28;20659;-69
2022/09/17 00:09:49;;;;;;;6.83;5.63;;;12.80;99.90;;;;;;5074582;28;20658;-69
2022/09/17 00:12:16;;;;;;;8.23;5.63;;;12.80;99.90;;;;;;5082246;28;20737;-70
2022/09/17 00:14:43;;;;;;;11.97;6.23;;;12.80;99.90;;;;;;5072922;28;20200;-68
2022/09/17 00:17:11;;;;;;;9.37;6.43;;;12.70;99.90;;;;;;5069473;28;20310;-70
2022/09/17 00:19:39;;;;;;;10.43;6.13;;;12.70;99.90;;;;;;5073836;28;20283;-70
2022/09/17 00:22:06;;;;;;;10.10;6.80;;;12.70;99.90;;;;;;5073929;28;20213;-69
2022/09/17 00:24:33;;;;;;;10.67;7.47;;;12.60;99.90;;;;;;5073634;28;20295;-70
2022/09/17 00:27:00;;;;;;;8.00;6.30;;;12.60;99.90;;;;;;5073896;28;20311;-69
2022/09/17 00:29:27;;;;;;;9.73;6.53;;;12.60;99.90;;;;;;5073880;28;20275;-69
2022/09/17 00:31:53;;;;;;;9.67;6.87;;;12.50;99.90;;;;;;5074241;28;20651;-69
2022/09/17 00:34:22;;;;;;;8.97;6.90;;;12.50;99.90;;;;;;5073862;28;20204;-69
2022/09/17 00:36:48;;;;;;;10.30;7.57;;;12.50;99.90;;;;;;5073853;28;20208;-69
2022/09/17 00:39:15;;;;;;;8.90;7.10;;;12.50;99.90;;;;;;5072412;28;20307;-71
2022/09/17 00:41:43;;;;;;;9.63;6.97;;;12.40;99.90;;;;;;5073644;28;20228;-69
2022/09/17 00:44:52;;;;;;;10.53;7.17;;;12.40;99.90;;;;;;5073505;28;20212;-69
2022/09/17 00:47:32;;;;;;;13.47;7.47;;;12.40;99.90;;;;;;5060727;28;20286;-69
2022/09/17 00:50:03;;;;;;;9.77;7.30;;;12.30;99.90;;;;;;5073440;28;20366;-68
2022/09/17 00:52:33;;;;;;;10.97;8.00;;;12.30;99.90;;;;;;5072549;28;20312;-69
2022/09/17 00:55:07;;;;;;;9.97;7.70;;;12.30;99.90;;;;;;5070893;28;20229;-71
2022/09/17 00:57:35;;;;;;;9.73;7.10;;;12.30;99.90;;;;;;5072578;28;20287;-69
2022/09/17 01:00:04;;;;;;;8.83;6.53;;;12.40;99.90;;;;;;5073291;28;20299;-69
2022/09/17 01:02:31;;;;;;;8.93;6.27;;;12.40;99.90;;;;;;5073138;28;20590;-69
2022/09/17 01:04:58;;;;;;;8.00;6.07;;;12.40;99.90;;;;;;5072455;28;20695;-69
2022/09/17 01:07:48;;;;;;;10.63;7.20;;;12.40;99.90;;;;;;5073020;28;20217;-69
2022/09/17 01:10:28;;;;;;;10.97;7.87;;;12.40;99.90;;;;;;5072204;28;20292;-70
2022/09/17 01:13:09;;;;;;;11.10;7.63;;;12.50;99.90;;;;;;5072786;28;20275;-69
2022/09/17 01:15:41;;;;;;;8.97;7.20;;;12.50;99.90;;;;;;5072107;28;20288;-69
2022/09/17 01:18:23;;;;;;;12.50;7.53;;;12.50;99.90;;;;;;5072173;28;20629;-69
2022/09/17 01:21:29;;;;;;;10.50;7.60;;;12.40;99.90;;;;;;5072801;28;20232;-69
2022/09/17 01:24:23;;;;;;;11.07;7.37;;;12.50;99.90;;;;;;5065002;28;20204;-69
2022/09/17 01:27:08;;;;;;;9.37;6.80;;;12.50;99.90;;;;;;5072937;28;20204;-70
2022/09/17 01:29:52;;;;;;;10.50;7.13;;;12.50;99.90;;;;;;5072224;28;20752;-69
2022/09/17 01:32:29;;;;;;;11.17;7.80;;;12.50;99.90;;;;;;5072441;28;20284;-68
2022/09/17 01:35:04;;;;;;;12.67;7.60;;;12.60;99.90;;;;;;5073028;28;20205;-69
2022/09/17 01:37:34;;;;;;;11.13;8.23;;;12.60;99.90;;;;;;5073057;28;20193;-69
2022/09/17 01:40:08;;;;;;;10.27;8.27;;;12.60;99.90;;;;;;5069775;28;20208;-69
2022/09/17 01:42:43;;;;;;;13.73;8.27;;;12.60;99.90;;;;;;5071845;28;20262;-68
2022/09/17 01:45:15;;;;;;;10.67;8.07;;;12.60;99.90;;;;;;5072284;28;20208;-68
2022/09/17 01:47:48;;;;;;;10.40;7.30;;;12.70;99.90;;;;;;5072402;28;20254;-69
2022/09/17 01:50:21;;;;;;;10.63;6.83;;;12.70;99.90;;;;;;5071244;28;20226;-69
2022/09/17 01:52:51;;;;;;;7.60;6.23;;;12.70;99.90;;;;;;5070162;28;20622;-69
2022/09/17 01:55:21;;;;;;;8.70;6.17;;;12.70;99.90;;;;;;5071910;28;20192;-69
2022/09/17 01:57:54;;;;;;;6.53;5.43;;;12.80;99.90;;;;;;5072107;28;20207;-68
2022/09/17 02:00:22;;;;;;;6.57;5.43;;;12.80;99.90;;;;;;5072263;28;20275;-69
2022/09/17 02:02:56;;;;;;;7.07;5.47;;;12.90;99.90;;;;;;5072290;28;20746;-68
2022/09/17 02:05:29;;;;;;;5.87;4.97;;;12.90;99.90;;;;;;5071220;28;20811;-68
2022/09/17 02:08:00;;;;;;;8.00;5.60;;;13.00;99.90;;;;;;5069331;28;20284;-69
2022/09/17 02:10:31;;;;;;;6.20;5.17;;;13.10;99.90;;;;;;5072246;28;20291;-69
2022/09/17 02:13:02;;;;;;;7.30;5.40;;;13.10;99.90;;;;;;5072042;28;20618;-70
2022/09/17 02:15:34;;;;;;;7.80;5.47;;;13.20;99.90;;;;;;5071130;28;20199;-69
2022/09/17 02:18:07;;;;;;;7.07;5.10;;;13.20;99.90;;;;;;5071020;28;20211;-69
2022/09/17 02:20:42;;;;;;;8.63;5.43;;;13.20;99.90;;;;;;5071857;28;20199;-68
2022/09/17 02:23:15;;;;;;;7.50;5.67;;;13.20;99.90;;;;;;5071044;28;20606;-69
2022/09/17 02:25:49;;;;;;;8.70;5.20;;;13.30;99.90;;;;;;5072074;28;20275;-68
2022/09/17 02:28:24;;;;;;;6.93;4.93;;;13.30;99.90;;;;;;5070852;28;20338;-69
2022/09/17 02:30:51;;;;;;;7.97;5.67;;;13.40;99.90;;;;;;5071013;28;20215;-70
2022/09/17 02:33:20;;;;;;;7.30;5.30;;;13.40;99.90;;;;;;5071772;28;20307;-69
2022/09/17 02:35:47;;;;;;;6.40;5.40;;;13.40;99.90;;;;;;5071689;28;20211;-69
2022/09/17 02:38:20;;;;;;;8.03;5.80;;;13.50;99.90;;;;;;5069515;28;20204;-69
2022/09/17 02:40:53;;;;;;;7.07;5.40;;;13.50;99.90;;;;;;5070966;28;20229;-69
2022/09/17 02:43:28;;;;;;;9.07;5.47;;;13.50;99.90;;;;;;5072096;28;20556;-69
2022/09/17 02:46:07;;;;;;;8.27;5.60;;;13.50;99.90;;;;;;5070830;28;20207;-69
2022/09/17 02:49:02;;;;;;;8.53;6.33;;;13.50;99.90;;;;;;5071748;28;20216;-69
2022/09/17 02:51:39;;;;;;;7.23;6.03;;;13.40;99.90;;;;;;5071734;28;20252;-69
2022/09/17 02:54:16;;;;;;;6.33;5.67;;;13.40;99.90;;;;;;5070644;28;20200;-70
2022/09/17 02:56:50;;;;;;;7.67;5.67;;;13.40;99.90;;;;;;5071398;28;20767;-69
2022/09/17 02:59:24;;;;;;;8.63;5.83;;;13.50;99.90;;;;;;5071623;28;20230;-69
2022/09/17 03:01:56;;;;;;;7.93;6.67;;;13.60;99.90;;;;;;5073761;28;20723;-69
2022/09/17 03:04:27;;;;;;;10.20;6.30;;;13.60;99.90;;;;;;5073890;28;20322;-68
2022/09/17 03:06:55;;;;;;;8.40;5.90;;;13.60;99.90;;;;;;5074962;28;20211;-69
2022/09/17 03:09:22;;;;;;;8.60;6.73;;;13.60;99.90;;;;;;5074898;28;20232;-69
2022/09/17 03:11:49;;;;;;;8.53;6.13;;;13.60;99.90;;;;;;5073611;28;20236;-68
2022/09/17 03:14:16;;;;;;;8.40;6.17;;;13.60;99.90;;;;;;5075999;28;20749;-69
2022/09/17 03:16:43;;;;;;;8.83;6.57;;;13.60;99.90;;;;;;5075088;28;20201;-70
2022/09/17 03:19:09;;;;;;;7.30;5.80;;;13.70;99.90;;;;;;5074049;28;20208;-70
2022/09/17 03:21:38;;;;;;;8.93;6.20;;;13.70;99.90;;;;;;5075158;28;20734;-70
2022/09/17 03:24:05;;;;;;;10.57;6.67;;;13.60;99.90;;;;;;5075138;28;20733;-68
2022/09/17 03:26:32;;;;;;;8.73;6.10;;;13.60;99.90;;;;;;5075136;28;20615;-69
2022/09/17 03:28:58;;;;;;;9.50;5.87;;;13.60;99.90;;;;;;5073565;28;20682;-69
2022/09/17 03:31:25;;;;;;;8.93;6.40;;;13.60;99.90;;;;;;5074890;28;20204;-68
2022/09/17 03:33:52;;;;;;;7.77;5.87;;;13.60;99.90;;;;;;5074624;28;20300;-69
2022/09/17 03:36:19;;;;;;;8.67;6.53;;;13.60;99.90;;;;;;5074948;28;20287;-69
2022/09/17 03:38:47;;;;;;;11.03;6.93;;;13.60;99.90;;;;;;5074386;28;20730;-69
2022/09/17 03:41:14;;;;;;;12.17;7.20;;;13.60;99.90;;;;;;5073128;28;20722;-69
2022/09/17 03:43:41;;;;;;;10.00;6.77;;;13.60;99.90;;;;;;5074902;28;20211;-69
2022/09/17 03:46:08;;;;;;;8.63;6.70;;;13.60;99.90;;;;;;5075027;28;20299;-68
2022/09/17 03:48:36;;;;;;;9.83;6.70;;;13.60;99.90;;;;;;5074717;28;20204;-70
2022/09/17 03:51:03;;;;;;;8.40;6.67;;;13.60;99.90;;;;;;5071601;28;20264;-68
2022/09/17 03:53:30;;;;;;;11.33;6.57;;;13.60;99.90;;;;;;5074286;28;20291;-68
2022/09/17 03:56:00;;;;;;;10.80;6.53;;;13.60;99.90;;;;;;5074472;28;20205;-69
2022/09/17 03:58:27;;;;;;;8.00;6.53;;;13.60;99.90;;;;;;5074525;28;20667;-69
2022/09/17 04:00:56;;;;;;;8.20;6.87;;;13.60;99.90;;;;;;5073991;28;20295;-70
2022/09/17 04:03:24;;;;;;;8.80;6.70;;;13.60;99.90;;;;;;5073232;28;20205;-71
2022/09/17 04:05:51;;;;;;;11.07;6.80;;;13.60;99.90;;;;;;5072690;28;20690;-71
2022/09/17 04:08:18;;;;;;;10.53;7.37;;;13.60;99.90;;;;;;5072378;28;20310;-70
2022/09/17 04:10:46;;;;;;;10.77;7.37;;;13.60;99.90;;;;;;5074035;28;20224;-70
2022/09/17 04:13:15;;;;;;;11.90;8.30;;;13.60;99.90;;;;;;5072664;28;20291;-69
2022/09/17 04:15:43;;;;;;;11.03;7.23;;;13.60;99.90;;;;;;5074244;28;20736;-69
2022/09/17 04:18:10;;;;;;;8.13;6.97;;;13.50;99.90;;;;;;5074564;28;20663;-69
2022/09/17 04:20:37;;;;;;;10.67;8.47;;;13.50;99.90;;;;;;5074090;28;20209;-70
2022/09/17 04:23:05;;;;;;;12.57;7.97;;;13.50;99.90;;;;;;5072933;28;20686;-69
2022/09/17 04:25:32;;;;;;;10.47;7.63;;;13.50;99.90;;;;;;5073886;28;20204;-69
2022/09/17 04:27:59;;;;;;;12.07;7.20;;;13.50;99.90;;;;;;5074630;28;20228;-71
2022/09/17 04:30:28;;;;;;;11.03;7.50;;;13.40;99.90;;;;;;5074806;28;20220;-68
2022/09/17 04:32:55;;;;;;;14.13;7.97;;;13.50;99.90;;;;;;5072308;28;20207;-70
2022/09/17 04:35:22;;;;;;;11.00;7.30;;;13.50;99.90;;;;;;5054135;28;20652;-70
2022/09/17 04:37:53;;;;;;;10.10;7.40;;;13.50;99.90;;;;;;5069915;28;20663;-69
2022/09/17 04:40:20;;;;;;;10.57;7.70;;;13.50;99.90;;;;;;5073649;28;20192;-69
2022/09/17 04:42:47;;;;;;;9.93;7.50;;;13.50;99.90;;;;;;5071563;28;20200;-69
2022/09/17 04:45:14;;;;;;;12.80;7.87;;;13.50;99.90;;;;;;5073553;28;20779;-69
2022/09/17 04:47:42;;;;;;;9.07;7.90;;;13.50;99.90;;;;;;5073276;28;20310;-71
2022/09/17 04:50:09;;;;;;;9.13;7.10;;;13.50;99.90;;;;;;5073058;28;20315;-70
2022/09/17 04:52:37;;;;;;;8.40;6.93;;;13.60;99.90;;;;;;5073849;28;20663;-70
2022/09/17 04:55:04;;;;;;;10.00;8.17;;;13.60;99.90;;;;;;5073601;28;20629;-69
2022/09/17 04:57:31;;;;;;;10.23;7.90;;;13.60;99.90;;;;;;5072605;28;20301;-70
2022/09/17 04:59:58;;;;;;;10.23;7.43;;;13.60;99.90;;;;;;5072949;28;20228;-69
2022/09/17 05:02:24;;;;;;;10.67;7.87;;;13.70;99.90;;;;;;5070438;28;20709;-69
2022/09/17 05:04:53;;;;;;;9.87;8.10;;;13.70;99.90;;;;;;5070571;28;20240;-70
2022/09/17 05:07:20;;;;;;;10.67;7.13;;;13.70;99.90;;;;;;5073377;28;20207;-71
2022/09/17 05:09:46;;;;;;;9.87;6.97;;;13.70;99.90;;;;;;5069571;28;20606;-70
2022/09/17 05:12:13;;;;;;;8.93;6.87;;;13.80;99.90;;;;;;5072106;28;20204;-69
2022/09/17 05:14:40;;;;;;;9.13;6.87;;;13.80;99.90;;;;;;5071410;28;20296;-70
2022/09/17 05:17:07;;;;;;;10.63;6.60;;;13.80;99.90;;;;;;5072931;28;20239;-71
2022/09/17 05:19:34;;;;;;;9.37;7.50;;;13.90;99.90;;;;;;5073213;28;20639;-71
2022/09/17 05:22:03;;;;;;;10.20;6.97;;;13.90;99.90;;;;;;5073281;28;20200;-72
2022/09/17 05:24:29;;;;;;;10.13;7.43;;;13.90;99.90;;;;;;5072289;28;20295;-70
2022/09/17 05:26:56;;;;;;;10.90;6.80;;;14.00;99.90;;;;;;5071124;28;20308;-70
2022/09/17 05:29:23;;;;;;;11.17;6.97;;;14.00;99.90;;;;;;5072049;28;20307;-70
2022/09/17 05:31:50;;;;;;;8.57;6.77;;;14.00;99.90;;;;;;5071330;28;20231;-70
2022/09/17 05:34:17;;;;;;;10.03;7.40;;;14.10;99.90;;;;;;5068716;28;20673;-69
2022/09/17 05:36:44;;;;;;;8.50;6.73;;;14.10;99.90;;;;;;5071989;28;20697;-69
2022/09/17 05:39:12;;;;;;;8.90;6.63;;;14.10;99.90;;;;;;5071824;28;20630;-69
2022/09/17 05:41:39;;;;;;;10.73;6.97;;;14.20;99.90;;;;;;5072148;28;20236;-69
2022/09/17 05:44:06;;;;;;;10.53;6.70;;;14.20;99.90;;;;;;5072344;28;20250;-70
2022/09/17 05:46:33;;;;;;;8.70;7.30;;;14.20;99.90;;;;;;5071971;28;20208;-69
2022/09/17 05:48:59;;;;;;;9.90;7.00;;;14.30;99.90;;;;;;5070140;28;20290;-70
2022/09/17 05:51:26;;;;;;;8.47;7.07;;;14.30;99.90;;;;;;5072248;28;20287;-69
2022/09/17 05:53:55;;;;;;;9.57;6.57;;;14.40;99.90;;;;;;5072464;28;20295;-70
2022/09/17 05:56:23;;;;;;;10.13;7.47;;;14.40;99.90;;;;;;5072229;28;20211;-69
2022/09/17 05:58:50;;;;;;;9.53;7.33;;;14.40;99.90;;;;;;5071817;28;20236;-70
2022/09/17 06:01:17;;;;;;;11.73;8.00;;;14.50;99.90;;;;;;5071500;28;20284;-69
2022/09/17 06:03:44;;;;;;;11.90;7.43;;;14.40;99.90;;;;;;5058524;28;20265;-69
2022/09/17 06:06:11;;;;;;;10.53;7.40;;;14.40;99.90;;;;;;5052110;28;20312;-69
2022/09/17 06:08:38;;;;;;;9.60;7.00;;;14.50;99.90;;;;;;5067546;28;20656;-70
2022/09/17 06:11:05;;;;;;;9.97;7.10;;;14.50;99.90;;;;;;5072068;28;20256;-69
2022/09/17 06:13:34;;;;;;;8.50;7.20;;;14.50;99.90;;;;;;5071582;28;20283;-69
2022/09/17 06:16:02;;;;;;;10.00;6.50;;;14.60;99.90;;;;;;5072264;28;20732;-73
2022/09/17 06:18:30;;;;;;;10.53;7.27;;;14.60;99.90;;;;;;5069669;28;20686;-70
2022/09/17 06:20:59;;;;;;;11.80;7.90;;;14.70;99.90;;;;;;5071977;28;20200;-70
2022/09/17 06:23:27;;;;;;;11.50;7.93;;;14.70;99.90;;;;;;5070580;28;20220;-70
2022/09/17 06:25:56;;;;;;;9.30;7.43;;;14.70;99.90;;;;;;5072016;28;20228;-69
2022/09/17 06:28:24;;;;;;;9.93;6.93;;;14.70;99.90;;;;;;5071729;28;20581;-69
2022/09/17 06:30:53;;;;;;;7.80;6.40;;;14.80;99.90;;;;;;5071651;28;20611;-70
2022/09/17 06:33:20;;;;;;;9.67;6.40;;;14.80;99.90;;;;;;5071864;28;20213;-69
2022/09/17 06:35:47;;;;;;;10.00;6.27;;;14.90;99.90;;;;;;5071037;28;20304;-69
2022/09/17 06:38:14;;;;;;;9.57;6.10;;;14.90;99.90;;;;;;5076199;28;20208;-70
2022/09/17 06:40:41;;;;;;;7.57;5.90;;;15.00;99.90;;;;;;5076084;28;20201;-70
2022/09/17 06:43:08;;;;;;;9.33;6.17;;;15.00;99.90;;;;;;5075800;28;20220;-70
2022/09/17 06:45:34;;;;;;;10.60;6.40;;;15.10;99.90;;;;;;5075386;28;20300;-70
2022/09/17 06:48:06;;;;;;;10.13;6.93;;;15.10;99.90;;;;;;5073533;28;20243;-70
2022/09/17 06:50:32;;;;;;;7.63;6.00;;;15.10;99.90;;;;;;5072911;28;20415;-70
2022/09/17 06:52:59;;;;;;;10.87;7.00;;;15.20;99.90;;;;;;5076147;28;20299;-69
2022/09/17 06:55:27;;;;;;;9.73;6.13;;;15.20;99.90;;;;;;5072808;28;20208;-70
2022/09/17 06:57:54;;;;;;;7.33;5.63;;;15.30;99.90;;;;;;5075386;28;20240;-70
2022/09/17 07:00:20;;;;;;;9.20;6.23;;;15.30;99.90;;;;;;5074615;28;20204;-69
2022/09/17 07:02:56;;;;;;;9.47;6.00;;;15.30;99.90;;;;;;5075740;28;20211;-71
2022/09/17 07:05:25;;;;;;;7.63;5.73;;;15.30;99.90;;;;;;5074638;28;20239;-68
2022/09/17 07:07:52;;;;;;;7.90;6.00;;;15.40;99.90;;;;;;5075203;28;20717;-70
2022/09/17 07:10:19;;;;;;;8.10;6.07;;;15.50;99.90;;;;;;5073812;28;20216;-70
2022/09/17 07:12:46;;;;;;;11.43;8.43;;;15.50;99.90;;;;;;5074575;28;20211;-68
2022/09/17 07:15:14;;;;;;;26.57;18.87;;;15.50;99.90;;;;;;5072785;28;20300;-69
2022/09/17 07:17:43;;;;;;;16.67;11.20;;;15.60;99.90;;;;;;5073784;28;20211;-70
2022/09/17 07:20:10;;;;;;;14.10;8.90;;;15.60;99.90;;;;;;5073877;28;20288;-69
2022/09/17 07:22:39;;;;;;;12.47;7.40;;;15.60;99.90;;;;;;5061763;28;20325;-70
2022/09/17 07:25:07;;;;;;;11.23;6.90;;;15.60;99.90;;;;;;5074333;28;20292;-71
2022/09/17 07:27:34;;;;;;;9.77;6.30;;;15.60;99.90;;;;;;5075034;28;20275;-69
2022/09/17 07:30:01;;;;;;;10.33;6.10;;;15.60;99.90;;;;;;5073771;28;20229;-69
2022/09/17 07:32:30;;;;;;;12.07;7.03;;;15.60;99.90;;;;;;5071506;28;20235;-68
2022/09/17 07:34:57;;;;;;;12.53;7.63;;;15.60;99.90;;;;;;5073819;28;20217;-69
2022/09/17 07:37:24;;;;;;;11.50;7.27;;;15.70;99.90;;;;;;5074716;28;20210;-69
2022/09/17 07:39:52;;;;;;;12.57;6.77;;;15.70;99.90;;;;;;5094137;28;20206;-68
2022/09/17 07:42:19;;;;;;;10.30;6.27;;;15.70;99.90;;;;;;5081582;28;20541;-70
2022/09/17 07:44:46;;;;;;;10.30;6.90;;;15.80;99.90;;;;;;5071858;28;20209;-70
2022/09/17 07:47:13;;;;;;;10.90;7.00;;;15.80;99.90;;;;;;5067509;28;20205;-69
2022/09/17 07:49:40;;;;;;;9.87;7.00;;;15.90;99.90;;;;;;5072898;28;20206;-69
2022/09/17 07:52:07;;;;;;;10.87;7.20;;;16.00;99.90;;;;;;5073439;28;20205;-70
2022/09/17 07:54:35;;;;;;;11.87;8.07;;;16.10;99.90;;;;;;5073001;28;20239;-71
2022/09/17 07:57:04;;;;;;;9.43;6.87;;;16.10;99.90;;;;;;5083164;28;20606;-71
2022/09/17 07:59:31;;;;;;;9.60;7.03;;;16.20;99.90;;;;;;5074757;28;20253;-69
2022/09/17 08:01:57;;;;;;;10.03;7.23;;;16.30;99.90;;;;;;5090876;28;20530;-70
2022/09/17 08:04:24;;;;;;;9.07;6.60;;;16.30;99.90;;;;;;5090079;28;20320;-69
2022/09/17 08:06:51;;;;;;;10.47;6.90;;;16.40;99.90;;;;;;5073477;28;20710;-69
2022/09/17 08:09:18;;;;;;;13.40;6.23;;;16.40;99.90;;;;;;5072599;28;20305;-69
2022/09/17 08:11:45;;;;;;;13.53;7.00;;;16.50;99.90;;;;;;5073659;28;20334;-69
2022/09/17 08:14:15;;;;;;;10.10;7.30;;;16.50;99.90;;;;;;5073981;28;20212;-69
2022/09/17 08:16:44;;;;;;;12.57;7.43;;;16.60;99.90;;;;;;5074230;28;20296;-70
2022/09/17 08:19:11;;;;;;;10.80;7.90;;;16.60;99.90;;;;;;5074178;28;20293;-72
2022/09/17 08:21:38;;;;;;;11.37;7.13;;;16.70;99.90;;;;;;5074121;28;20295;-71
2022/09/17 08:24:05;;;;;;;11.47;7.63;;;16.70;99.90;;;;;;5074778;28;20293;-69
2022/09/17 08:26:32;;;;;;;12.67;8.20;;;16.70;99.90;;;;;;5073391;28;20294;-70
2022/09/17 08:28:59;;;;;;;10.83;7.67;;;16.70;99.90;;;;;;5073758;28;20292;-69
2022/09/17 08:31:29;;;;;;;18.47;7.90;;;16.70;99.90;;;;;;5073601;28;20245;-72
2022/09/17 08:33:56;;;;;;;13.47;7.50;;;16.70;99.90;;;;;;5076394;28;20256;-69
2022/09/17 08:36:24;;;;;;;14.87;7.37;;;16.80;99.90;;;;;;5059891;28;20282;-70
2022/09/17 08:38:53;;;;;;;13.03;7.30;;;16.80;99.90;;;;;;5072541;28;20319;-69
2022/09/17 08:41:26;;;;;;;11.97;8.00;;;16.80;99.90;;;;;;5073401;28;20744;-70
2022/09/17 08:44:11;;;;;;;14.37;7.70;;;16.80;99.90;;;;;;5073851;28;20531;-68
2022/09/17 08:46:43;;;;;;;13.27;7.80;;;16.90;99.90;;;;;;5072775;28;20210;-69
2022/09/17 08:49:16;;;;;;;11.80;7.63;;;16.90;99.90;;;;;;5073246;28;20554;-70
2022/09/17 08:51:53;;;;;;;14.50;7.73;;;16.90;99.90;;;;;;5072412;28;20662;-69
2022/09/17 08:54:29;;;;;;;15.07;7.37;;;17.00;99.90;;;;;;5073140;28;20234;-69
2022/09/17 08:57:07;;;;;;;11.03;6.70;;;16.90;99.90;;;;;;5070351;28;20206;-69
2022/09/17 08:59:40;;;;;;;11.63;7.53;;;17.00;99.90;;;;;;5072766;28;20612;-68
2022/09/17 09:02:29;;;;;;;11.83;7.50;;;17.00;99.90;;;;;;5072705;28;20319;-68
2022/09/17 09:05:06;;;;;;;13.27;9.27;;;17.10;99.90;;;;;;5072566;28;20332;-69
2022/09/17 09:07:41;;;;;;;11.97;7.50;;;17.20;99.90;;;;;;5072183;28;20254;-69
2022/09/17 09:10:15;;;;;;;10.57;6.90;;;17.20;99.90;;;;;;5072840;28;20679;-70
2022/09/17 09:12:43;;;;;;;13.93;7.83;;;17.20;99.90;;;;;;5072883;28;20283;-69
2022/09/17 09:15:23;;;;;;;15.03;8.50;;;17.30;99.90;;;;;;5073139;28;20293;-68
2022/09/17 09:17:53;;;;;;;11.57;7.23;;;17.30;99.90;;;;;;5072152;28;20213;-71
2022/09/17 09:20:26;;;;;;;10.50;6.90;;;17.40;99.90;;;;;;5073173;28;20212;-69
2022/09/17 09:22:53;;;;;;;15.03;9.80;;;17.40;99.90;;;;;;5073371;28;20621;-68
2022/09/17 09:25:23;;;;;;;11.17;7.87;;;17.40;99.90;;;;;;5071625;28;20211;-70
2022/09/17 09:28:06;;;;;;;11.33;6.60;;;17.40;99.90;;;;;;5072785;28;20566;-69
2022/09/17 09:30:47;;;;;;;8.23;6.40;;;17.40;99.90;;;;;;5067700;28;20277;-69
2022/09/17 09:33:19;;;;;;;7.47;5.93;;;17.50;99.90;;;;;;5072612;28;20200;-68
2022/09/17 09:35:45;;;;;;;10.13;6.30;;;17.50;99.90;;;;;;5071611;28;20192;-70
2022/09/17 09:38:22;;;;;;;10.90;6.37;;;17.60;99.90;;;;;;5072007;28;20700;-69
2022/09/17 09:40:54;;;;;;;10.13;5.70;;;17.60;99.90;;;;;;5071549;28;20197;-71
2022/09/17 09:43:24;;;;;;;7.53;5.10;;;17.60;99.90;;;;;;5071579;28;20203;-70
2022/09/17 09:46:18;;;;;;;11.30;5.77;;;17.70;99.90;;;;;;5065190;28;20203;-70
2022/09/17 09:49:07;;;;;;;9.50;5.50;;;17.70;99.90;;;;;;5069691;28;20236;-69
2022/09/17 09:51:44;;;;;;;8.80;5.20;;;17.70;99.90;;;;;;5064823;28;20664;-70
2022/09/17 09:54:23;;;;;;;8.27;5.80;;;17.70;99.90;;;;;;5068077;28;20207;-68
2022/09/17 09:56:56;;;;;;;13.67;6.27;;;17.70;99.90;;;;;;5068126;28;20205;-69
2022/09/17 09:59:23;;;;;;;7.83;5.60;;;17.60;99.90;;;;;;5066874;28;20201;-70
2022/09/17 10:01:50;;;;;;;7.97;5.70;;;17.60;99.90;;;;;;5067924;28;20245;-71
2022/09/17 10:04:21;;;;;;;8.53;5.63;;;17.70;99.90;;;;;;5067787;28;20335;-70
2022/09/17 10:06:51;;;;;;;8.83;5.60;;;17.70;99.90;;;;;;5069144;28;20202;-69
2022/09/17 10:09:21;;;;;;;8.80;5.57;;;17.70;99.90;;;;;;5068203;28;20923;-71
2022/09/17 10:12:02;;;;;;;10.17;7.50;;;17.70;99.90;;;;;;5068407;28;20232;-71
2022/09/17 10:14:30;;;;;;;10.97;5.70;;;17.70;99.90;;;;;;5069402;28;20673;-70
2022/09/17 10:17:18;;;;;;;8.80;6.10;;;17.60;99.90;;;;;;5069061;28;20291;-70
2022/09/17 10:19:47;;;;;;;8.83;6.33;;;17.60;99.90;;;;;;5069277;28;20717;-70
2022/09/17 10:22:26;;;;;;;8.87;5.87;;;17.50;99.90;;;;;;5068395;28;20575;-69
2022/09/17 10:24:54;;;;;;;11.67;5.53;;;17.50;99.90;;;;;;5070712;28;20570;-69
2022/09/17 10:27:24;;;;;;;9.40;6.27;;;17.50;99.90;;;;;;5072165;28;20264;-70
2022/09/17 10:29:56;;;;;;;8.57;4.87;;;17.50;99.90;;;;;;5071584;28;20204;-69
2022/09/17 10:32:23;;;;;;;12.27;5.97;;;17.50;99.90;;;;;;5071429;28;20207;-69
2022/09/17 10:35:07;;;;;;;9.27;5.40;;;17.40;99.90;;;;;;5068786;28;20222;-71
2022/09/17 10:37:41;;;;;;;8.73;5.20;;;17.40;99.90;;;;;;5071296;28;20658;-71
2022/09/17 10:40:30;;;;;;;10.23;5.03;;;17.40;99.90;;;;;;5067888;28;20557;-69
2022/09/17 10:43:24;;;;;;;9.47;5.70;;;17.40;99.90;;;;;;5068690;28;20207;-69
2022/09/17 10:45:59;;;;;;;7.53;5.03;;;17.40;99.90;;;;;;5068016;28;20201;-69
2022/09/17 10:48:30;;;;;;;8.33;5.10;;;17.50;99.90;;;;;;5068728;28;20724;-69
2022/09/17 10:51:01;;;;;;;7.17;5.30;;;17.50;99.90;;;;;;5071238;28;20302;-70
2022/09/17 10:53:29;;;;;;;7.17;5.00;;;17.50;99.90;;;;;;5071338;28;20705;-70
2022/09/17 10:56:07;;;;;;;7.83;4.67;;;17.50;99.90;;;;;;5070079;28;20207;-72
2022/09/17 10:58:46;;;;;;;8.43;4.93;;;17.60;99.90;;;;;;5071592;28;20698;-70
2022/09/17 11:01:28;;;;;;;8.20;5.20;;;17.60;99.90;;;;;;5071259;28;20282;-69
2022/09/17 11:04:32;;;;;;;8.63;4.87;;;17.60;99.90;;;;;;5071052;28;20434;-71
2022/09/17 11:07:31;;;;;;;7.00;5.13;;;17.70;99.90;;;;;;5070576;28;20210;-70
2022/09/17 11:10:09;;;;;;;6.33;5.03;;;17.60;99.90;;;;;;5050764;28;20210;-69
2022/09/17 11:12:45;;;;;;;7.33;5.03;;;17.60;99.90;;;;;;5069860;28;20230;-69
2022/09/17 11:15:26;;;;;;;7.50;5.13;;;17.70;99.90;;;;;;5069512;28;20717;-70
2022/09/17 11:18:24;;;;;;;10.80;7.60;;;17.70;99.90;;;;;;5068822;28;20211;-70
2022/09/17 11:21:07;;;;;;;8.07;5.17;;;17.70;99.90;;;;;;5061190;28;20201;-70
2022/09/17 11:23:57;;;;;;;8.00;5.30;;;17.70;99.90;;;;;;5072494;28;20833;-70
2022/09/17 11:26:32;;;;;;;11.97;5.37;;;17.70;99.90;;;;;;5074610;28;20197;-69
2022/09/17 11:29:09;;;;;;;11.97;5.07;;;17.70;99.90;;;;;;5074560;28;20202;-68
2022/09/17 11:31:42;;;;;;;9.07;5.93;;;17.80;99.90;;;;;;5074501;28;20304;-70
2022/09/17 11:34:25;;;;;;;11.90;7.50;;;17.70;99.90;;;;;;5074128;28;20205;-68
2022/09/17 11:36:57;;;;;;;26.53;12.70;;;17.60;99.90;;;;;;5074584;28;20199;-69
2022/09/17 11:39:31;;;;;;;15.50;9.60;;;17.60;99.90;;;;;;5074547;28;20809;-69
2022/09/17 11:42:03;;;;;;;13.60;7.93;;;17.60;99.90;;;;;;5074621;28;20189;-68
2022/09/17 11:44:36;;;;;;;34.07;24.87;;;17.50;99.90;;;;;;5071981;28;20199;-68
2022/09/17 11:47:10;;;;;;;11.93;7.97;;;17.50;99.90;;;;;;5074427;28;20668;-69
2022/09/17 11:49:42;;;;;;;9.63;6.50;;;17.40;99.90;;;;;;5074415;28;20196;-70
2022/09/17 11:52:14;;;;;;;10.70;6.10;;;17.30;99.90;;;;;;5072294;28;20209;-69
2022/09/17 11:54:47;;;;;;;14.20;5.87;;;17.30;99.90;;;;;;5069207;28;20289;-68
2022/09/17 11:57:19;;;;;;;9.50;5.90;;;17.20;99.90;;;;;;5071926;28;20714;-69
2022/09/17 11:59:52;;;;;;;8.67;6.13;;;17.20;99.90;;;;;;5071482;28;20275;-71
2022/09/17 12:02:25;;;;;;;9.87;6.30;;;17.20;99.90;;;;;;5074494;28;20264;-68
2022/09/17 12:04:58;;;;;;;15.53;11.30;;;17.20;99.90;;;;;;5071465;28;20330;-70
2022/09/17 12:07:41;;;;;;;15.77;12.00;;;17.20;99.90;;;;;;5071705;28;20199;-69
2022/09/17 12:10:38;;;;;;;16.23;11.57;;;17.20;99.90;;;;;;5071224;28;20674;-69
2022/09/17 12:13:26;;;;;;;12.07;8.40;;;17.20;99.90;;;;;;5073989;28;20229;-68
2022/09/17 12:16:06;;;;;;;17.40;11.20;;;17.20;99.90;;;;;;5072664;28;20218;-69
2022/09/17 12:18:49;;;;;;;18.20;11.53;;;17.10;99.90;;;;;;5073520;28;20214;-71
2022/09/17 12:21:21;;;;;;;21.10;12.60;;;17.00;99.90;;;;;;5072041;28;20201;-69
2022/09/17 12:23:55;;;;;;;20.60;12.70;;;16.90;99.90;;;;;;5072930;28;20231;-69
2022/09/17 12:26:34;;;;;;;19.60;13.43;;;16.90;99.90;;;;;;5072428;28;20294;-69
2022/09/17 12:29:11;;;;;;;21.63;14.23;;;16.80;99.90;;;;;;5073479;28;20188;-69
2022/09/17 12:31:45;;;;;;;19.33;14.40;;;16.70;99.90;;;;;;5072624;28;20303;-69
2022/09/17 12:34:26;;;;;;;25.30;15.67;;;16.70;99.90;;;;;;5070599;28;20197;-69
2022/09/17 12:37:04;;;;;;;25.47;15.90;;;16.70;99.90;;;;;;5073778;28;20283;-70
2022/09/17 12:39:46;;;;;;;20.67;14.47;;;16.60;99.90;;;;;;5071844;28;20207;-69
2022/09/17 12:42:53;;;;;;;17.73;12.67;;;16.60;99.90;;;;;;5065388;28;20230;-70
2022/09/17 12:45:34;;;;;;;19.73;14.53;;;16.50;99.90;;;;;;5029223;28;20206;-70
2022/09/17 12:48:38;;;;;;;18.33;13.33;;;16.50;99.90;;;;;;5028229;28;20203;-70
2022/09/17 12:51:17;;;;;;;17.13;12.23;;;16.50;99.90;;;;;;5059617;28;20564;-72
2022/09/17 12:53:52;;;;;;;18.63;12.70;;;16.50;99.90;;;;;;5066484;28;20200;-70
2022/09/17 12:56:30;;;;;;;18.13;12.83;;;16.50;99.90;;;;;;5081080;28;20246;-69
2022/09/17 12:59:10;;;;;;;20.70;14.03;;;16.50;99.90;;;;;;5068854;28;20291;-69
2022/09/17 13:01:45;;;;;;;20.13;14.50;;;16.50;99.90;;;;;;5072494;28;20191;-69
2022/09/17 13:04:27;;;;;;;18.50;12.90;;;16.50;99.90;;;;;;5073951;28;20362;-69